sensor_id;sensor_type;location;lat;lon;timestamp;temperature;humidity
38263;DHT22;24054;50.128;19.730;2022-07-10T00:00:41;24.00;62.40
38263;DHT22;24054;50.128;19.730;2022-07-10T00:03:08;24.00;62.40
38263;DHT22;24054;50.128;19.730;2022-07-10T00:05:36;23.90;62.30
38263;DHT22;24054;50.128;19.730;2022-07-10T00:08:03;24.00;62.30
38263;DHT22;24054;50.128;19.730;2022-07-10T00:10:30;24.00;62.30
38263;DHT22;24054;50.128;19.730;2022-07-10T00:13:00;24.00;62.30
38263;DHT22;24054;50.128;19.730;2022-07-10T00:15:27;23.90;62.20
38263;DHT22;24054;50.128;19.730;2022-07-10T00:17:54;23.90;62.20
38263;DHT22;24054;50.128;19.730;2022-07-10T00:20:21;23.90;62.20
38263;DHT22;24054;50.128;19.730;2022-07-10T00:22:48;23.90;62.20
38263;DHT22;24054;50.128;19.730;2022-07-10T00:25:15;23.90;62.20
38263;DHT22;24054;50.128;19.730;2022-07-10T00:27:42;23.90;62.20
38263;DHT22;24054;50.128;19.730;2022-07-10T00:30:11;23.90;62.20
38263;DHT22;24054;50.128;19.730;2022-07-10T00:32:38;23.90;62.10
38263;DHT22;24054;50.128;19.730;2022-07-10T00:35:06;23.90;62.10
38263;DHT22;24054;50.128;19.730;2022-07-10T00:37:34;23.90;62.10
38263;DHT22;24054;50.128;19.730;2022-07-10T00:40:03;23.90;62.10
38263;DHT22;24054;50.128;19.730;2022-07-10T00:42:31;23.90;62.10
38263;DHT22;24054;50.128;19.730;2022-07-10T00:44:58;23.90;62.00
38263;DHT22;24054;50.128;19.730;2022-07-10T00:47:26;23.90;62.00
38263;DHT22;24054;50.128;19.730;2022-07-10T00:49:53;23.90;62.70
38263;DHT22;24054;50.128;19.730;2022-07-10T00:52:20;23.90;62.00
38263;DHT22;24054;50.128;19.730;2022-07-10T00:54:49;23.90;62.00
38263;DHT22;24054;50.128;19.730;2022-07-10T00:57:17;23.90;62.00
38263;DHT22;24054;50.128;19.730;2022-07-10T00:59:45;23.90;62.00
38263;DHT22;24054;50.128;19.730;2022-07-10T01:02:14;23.90;62.00
38263;DHT22;24054;50.128;19.730;2022-07-10T01:04:43;23.90;62.00
38263;DHT22;24054;50.128;19.730;2022-07-10T01:07:10;23.90;62.00
38263;DHT22;24054;50.128;19.730;2022-07-10T01:09:37;23.80;62.00
38263;DHT22;24054;50.128;19.730;2022-07-10T01:12:05;23.80;61.90
38263;DHT22;24054;50.128;19.730;2022-07-10T01:14:33;23.80;61.90
38263;DHT22;24054;50.128;19.730;2022-07-10T01:17:01;23.90;62.00
38263;DHT22;24054;50.128;19.730;2022-07-10T01:19:28;23.80;61.90
38263;DHT22;24054;50.128;19.730;2022-07-10T01:21:56;23.90;62.00
38263;DHT22;24054;50.128;19.730;2022-07-10T01:24:23;23.80;61.90
38263;DHT22;24054;50.128;19.730;2022-07-10T01:26:50;23.80;61.90
38263;DHT22;24054;50.128;19.730;2022-07-10T01:29:20;23.80;61.90
38263;DHT22;24054;50.128;19.730;2022-07-10T01:31:48;23.80;61.90
38263;DHT22;24054;50.128;19.730;2022-07-10T01:34:15;23.80;61.90
38263;DHT22;24054;50.128;19.730;2022-07-10T01:36:43;23.80;61.90
38263;DHT22;24054;50.128;19.730;2022-07-10T01:39:12;23.80;61.90
38263;DHT22;24054;50.128;19.730;2022-07-10T01:41:39;23.80;61.90
38263;DHT22;24054;50.128;19.730;2022-07-10T01:44:06;23.80;61.90
38263;DHT22;24054;50.128;19.730;2022-07-10T01:46:33;23.80;61.90
38263;DHT22;24054;50.128;19.730;2022-07-10T01:49:00;23.80;61.90
38263;DHT22;24054;50.128;19.730;2022-07-10T01:51:27;23.80;61.90
38263;DHT22;24054;50.128;19.730;2022-07-10T01:53:54;23.80;61.90
38263;DHT22;24054;50.128;19.730;2022-07-10T01:56:23;23.80;61.90
38263;DHT22;24054;50.128;19.730;2022-07-10T01:58:50;23.80;61.90
38263;DHT22;24054;50.128;19.730;2022-07-10T02:01:17;23.80;61.90
38263;DHT22;24054;50.128;19.730;2022-07-10T02:03:43;23.80;61.80
38263;DHT22;24054;50.128;19.730;2022-07-10T02:06:28;23.80;61.80
38263;DHT22;24054;50.128;19.730;2022-07-10T02:08:55;23.80;61.80
38263;DHT22;24054;50.128;19.730;2022-07-10T02:11:23;23.80;61.80
38263;DHT22;24054;50.128;19.730;2022-07-10T02:13:50;23.70;61.80
38263;DHT22;24054;50.128;19.730;2022-07-10T02:16:17;23.80;61.80
38263;DHT22;24054;50.128;19.730;2022-07-10T02:18:44;23.80;61.80
38263;DHT22;24054;50.128;19.730;2022-07-10T02:21:11;23.80;61.80
38263;DHT22;24054;50.128;19.730;2022-07-10T02:23:38;23.80;61.80
38263;DHT22;24054;50.128;19.730;2022-07-10T02:26:06;23.80;61.80
38263;DHT22;24054;50.128;19.730;2022-07-10T02:28:35;23.80;61.80
38263;DHT22;24054;50.128;19.730;2022-07-10T02:31:02;23.70;61.80
38263;DHT22;24054;50.128;19.730;2022-07-10T02:33:29;23.70;61.80
38263;DHT22;24054;50.128;19.730;2022-07-10T02:35:56;23.70;61.80
38263;DHT22;24054;50.128;19.730;2022-07-10T02:38:23;23.70;61.80
38263;DHT22;24054;50.128;19.730;2022-07-10T02:40:50;23.70;61.80
38263;DHT22;24054;50.128;19.730;2022-07-10T02:43:17;23.70;61.70
38263;DHT22;24054;50.128;19.730;2022-07-10T02:45:45;23.70;61.80
38263;DHT22;24054;50.128;19.730;2022-07-10T02:48:13;23.70;61.70
38263;DHT22;24054;50.128;19.730;2022-07-10T02:50:40;23.70;61.80
38263;DHT22;24054;50.128;19.730;2022-07-10T02:53:07;23.70;61.70
38263;DHT22;24054;50.128;19.730;2022-07-10T02:55:34;23.70;61.80
38263;DHT22;24054;50.128;19.730;2022-07-10T02:58:01;23.70;61.80
38263;DHT22;24054;50.128;19.730;2022-07-10T03:00:29;23.70;61.70
38263;DHT22;24054;50.128;19.730;2022-07-10T03:02:57;23.70;61.70
38263;DHT22;24054;50.128;19.730;2022-07-10T03:05:24;23.70;61.70
38263;DHT22;24054;50.128;19.730;2022-07-10T03:07:51;23.70;61.70
38263;DHT22;24054;50.128;19.730;2022-07-10T03:10:19;23.70;61.70
38263;DHT22;24054;50.128;19.730;2022-07-10T03:12:46;23.70;61.70
38263;DHT22;24054;50.128;19.730;2022-07-10T03:15:14;23.70;61.70
38263;DHT22;24054;50.128;19.730;2022-07-10T03:17:41;23.70;61.70
38263;DHT22;24054;50.128;19.730;2022-07-10T03:20:10;23.70;61.70
38263;DHT22;24054;50.128;19.730;2022-07-10T03:22:37;23.70;61.70
38263;DHT22;24054;50.128;19.730;2022-07-10T03:25:05;23.70;61.70
38263;DHT22;24054;50.128;19.730;2022-07-10T03:27:32;23.70;61.70
38263;DHT22;24054;50.128;19.730;2022-07-10T03:29:59;23.70;61.70
38263;DHT22;24054;50.128;19.730;2022-07-10T03:32:26;23.70;61.70
38263;DHT22;24054;50.128;19.730;2022-07-10T03:34:53;23.70;61.70
38263;DHT22;24054;50.128;19.730;2022-07-10T03:37:21;23.70;61.70
38263;DHT22;24054;50.128;19.730;2022-07-10T03:39:48;23.70;61.70
38263;DHT22;24054;50.128;19.730;2022-07-10T03:42:15;23.70;61.70
38263;DHT22;24054;50.128;19.730;2022-07-10T03:44:42;23.70;61.70
38263;DHT22;24054;50.128;19.730;2022-07-10T03:47:09;23.70;61.70
38263;DHT22;24054;50.128;19.730;2022-07-10T03:49:36;23.60;61.60
38263;DHT22;24054;50.128;19.730;2022-07-10T03:52:05;23.60;61.60
38263;DHT22;24054;50.128;19.730;2022-07-10T03:54:33;23.70;61.70
38263;DHT22;24054;50.128;19.730;2022-07-10T03:57:00;23.70;61.70
38263;DHT22;24054;50.128;19.730;2022-07-10T03:59:44;23.60;61.60
38263;DHT22;24054;50.128;19.730;2022-07-10T04:02:11;23.60;61.60
38263;DHT22;24054;50.128;19.730;2022-07-10T04:04:38;23.70;61.60
38263;DHT22;24054;50.128;19.730;2022-07-10T04:07:05;23.60;61.60
38263;DHT22;24054;50.128;19.730;2022-07-10T04:09:34;23.60;61.60
38263;DHT22;24054;50.128;19.730;2022-07-10T04:12:01;23.60;61.60
38263;DHT22;24054;50.128;19.730;2022-07-10T04:14:28;23.60;61.60
38263;DHT22;24054;50.128;19.730;2022-07-10T04:16:54;23.60;61.60
38263;DHT22;24054;50.128;19.730;2022-07-10T04:19:21;23.60;61.60
38263;DHT22;24054;50.128;19.730;2022-07-10T04:21:49;23.60;61.60
38263;DHT22;24054;50.128;19.730;2022-07-10T04:24:16;23.60;61.60
38263;DHT22;24054;50.128;19.730;2022-07-10T04:26:44;23.60;61.60
38263;DHT22;24054;50.128;19.730;2022-07-10T04:29:11;23.60;61.60
38263;DHT22;24054;50.128;19.730;2022-07-10T04:31:38;23.60;61.60
38263;DHT22;24054;50.128;19.730;2022-07-10T04:34:05;23.60;61.60
38263;DHT22;24054;50.128;19.730;2022-07-10T04:36:32;23.60;61.60
38263;DHT22;24054;50.128;19.730;2022-07-10T04:38:59;23.60;61.60
38263;DHT22;24054;50.128;19.730;2022-07-10T04:41:26;23.60;61.60
38263;DHT22;24054;50.128;19.730;2022-07-10T04:43:54;23.60;61.60
38263;DHT22;24054;50.128;19.730;2022-07-10T04:46:21;23.60;61.60
38263;DHT22;24054;50.128;19.730;2022-07-10T04:48:48;23.60;61.60
38263;DHT22;24054;50.128;19.730;2022-07-10T04:51:16;23.60;61.60
38263;DHT22;24054;50.128;19.730;2022-07-10T04:53:43;23.60;61.60
38263;DHT22;24054;50.128;19.730;2022-07-10T04:56:10;23.60;61.60
38263;DHT22;24054;50.128;19.730;2022-07-10T04:58:37;23.60;61.60
38263;DHT22;24054;50.128;19.730;2022-07-10T05:01:06;23.60;61.60
38263;DHT22;24054;50.128;19.730;2022-07-10T05:03:33;23.60;61.60
38263;DHT22;24054;50.128;19.730;2022-07-10T05:06:00;23.60;61.60
38263;DHT22;24054;50.128;19.730;2022-07-10T05:08:27;23.60;61.60
38263;DHT22;24054;50.128;19.730;2022-07-10T05:10:53;23.60;61.60
38263;DHT22;24054;50.128;19.730;2022-07-10T05:13:20;23.60;62.20
38263;DHT22;24054;50.128;19.730;2022-07-10T05:15:47;23.60;61.60
38263;DHT22;24054;50.128;19.730;2022-07-10T05:18:16;23.60;61.60
38263;DHT22;24054;50.128;19.730;2022-07-10T05:20:44;23.60;61.60
38263;DHT22;24054;50.128;19.730;2022-07-10T05:23:13;23.60;61.60
38263;DHT22;24054;50.128;19.730;2022-07-10T05:25:40;23.60;61.60
38263;DHT22;24054;50.128;19.730;2022-07-10T05:28:07;23.60;61.60
38263;DHT22;24054;50.128;19.730;2022-07-10T05:30:34;23.60;61.60
38263;DHT22;24054;50.128;19.730;2022-07-10T05:33:01;23.60;61.70
38263;DHT22;24054;50.128;19.730;2022-07-10T05:35:30;23.60;61.60
38263;DHT22;24054;50.128;19.730;2022-07-10T05:37:57;23.60;61.60
38263;DHT22;24054;50.128;19.730;2022-07-10T05:40:24;23.60;61.70
38263;DHT22;24054;50.128;19.730;2022-07-10T05:42:51;23.60;61.90
38263;DHT22;24054;50.128;19.730;2022-07-10T05:45:18;23.60;62.30
38263;DHT22;24054;50.128;19.730;2022-07-10T05:47:45;23.50;61.60
38263;DHT22;24054;50.128;19.730;2022-07-10T05:50:12;23.60;61.70
38263;DHT22;24054;50.128;19.730;2022-07-10T05:52:40;23.50;61.60
38263;DHT22;24054;50.128;19.730;2022-07-10T05:55:08;23.50;61.60
38263;DHT22;24054;50.128;19.730;2022-07-10T05:57:35;23.50;61.60
38263;DHT22;24054;50.128;19.730;2022-07-10T06:00:03;23.60;61.70
38263;DHT22;24054;50.128;19.730;2022-07-10T06:02:31;23.50;61.70
38263;DHT22;24054;50.128;19.730;2022-07-10T06:04:58;23.50;61.70
38263;DHT22;24054;50.128;19.730;2022-07-10T06:07:25;23.50;61.70
38263;DHT22;24054;50.128;19.730;2022-07-10T06:09:54;23.50;61.70
38263;DHT22;24054;50.128;19.730;2022-07-10T06:12:22;23.50;61.70
38263;DHT22;24054;50.128;19.730;2022-07-10T06:14:49;23.60;61.80
38263;DHT22;24054;50.128;19.730;2022-07-10T06:17:16;23.50;61.70
38263;DHT22;24054;50.128;19.730;2022-07-10T06:19:45;23.50;61.70
38263;DHT22;24054;50.128;19.730;2022-07-10T06:22:12;23.60;61.80
38263;DHT22;24054;50.128;19.730;2022-07-10T06:24:59;23.50;61.80
38263;DHT22;24054;50.128;19.730;2022-07-10T06:27:27;23.50;61.80
38263;DHT22;24054;50.128;19.730;2022-07-10T06:29:54;23.50;61.80
38263;DHT22;24054;50.128;19.730;2022-07-10T06:32:22;23.50;61.90
38263;DHT22;24054;50.128;19.730;2022-07-10T06:34:50;23.60;61.90
38263;DHT22;24054;50.128;19.730;2022-07-10T06:37:17;23.60;62.00
38263;DHT22;24054;50.128;19.730;2022-07-10T06:39:45;23.60;62.10
38263;DHT22;24054;50.128;19.730;2022-07-10T06:42:15;23.60;62.00
38263;DHT22;24054;50.128;19.730;2022-07-10T06:44:42;23.60;62.00
38263;DHT22;24054;50.128;19.730;2022-07-10T06:47:10;23.70;62.10
38263;DHT22;24054;50.128;19.730;2022-07-10T06:49:55;23.70;62.10
38263;DHT22;24054;50.128;19.730;2022-07-10T06:52:23;23.70;62.20
38263;DHT22;24054;50.128;19.730;2022-07-10T06:54:50;23.70;62.30
38263;DHT22;24054;50.128;19.730;2022-07-10T06:57:19;23.80;62.50
38263;DHT22;24054;50.128;19.730;2022-07-10T06:59:46;23.80;62.60
38263;DHT22;24054;50.128;19.730;2022-07-10T07:02:13;23.80;62.80
38263;DHT22;24054;50.128;19.730;2022-07-10T07:04:41;23.80;62.80
38263;DHT22;24054;50.128;19.730;2022-07-10T07:07:10;23.80;63.00
38263;DHT22;24054;50.128;19.730;2022-07-10T07:09:37;23.80;62.90
38263;DHT22;24054;50.128;19.730;2022-07-10T07:12:06;23.80;62.90
38263;DHT22;24054;50.128;19.730;2022-07-10T07:14:35;23.80;62.90
38263;DHT22;24054;50.128;19.730;2022-07-10T07:17:02;23.80;62.70
38263;DHT22;24054;50.128;19.730;2022-07-10T07:19:31;23.80;62.80
38263;DHT22;24054;50.128;19.730;2022-07-10T07:22:19;23.90;62.90
38263;DHT22;24054;50.128;19.730;2022-07-10T07:25:04;23.90;62.80
38263;DHT22;24054;50.128;19.730;2022-07-10T07:27:32;23.90;62.90
38263;DHT22;24054;50.128;19.730;2022-07-10T07:30:03;23.90;62.80
38263;DHT22;24054;50.128;19.730;2022-07-10T07:32:30;24.00;62.70
38263;DHT22;24054;50.128;19.730;2022-07-10T07:35:01;24.00;62.90
38263;DHT22;24054;50.128;19.730;2022-07-10T07:37:38;24.00;62.90
38263;DHT22;24054;50.128;19.730;2022-07-10T07:40:07;24.00;62.80
38263;DHT22;24054;50.128;19.730;2022-07-10T07:42:35;24.00;62.80
38263;DHT22;24054;50.128;19.730;2022-07-10T07:45:04;24.00;62.80
38263;DHT22;24054;50.128;19.730;2022-07-10T07:47:42;24.00;62.90
38263;DHT22;24054;50.128;19.730;2022-07-10T07:50:10;24.10;63.10
38263;DHT22;24054;50.128;19.730;2022-07-10T07:52:37;24.10;63.30
38263;DHT22;24054;50.128;19.730;2022-07-10T07:55:05;24.10;63.10
38263;DHT22;24054;50.128;19.730;2022-07-10T07:57:33;24.10;63.30
38263;DHT22;24054;50.128;19.730;2022-07-10T08:00:00;24.10;63.30
38263;DHT22;24054;50.128;19.730;2022-07-10T08:02:29;24.10;63.40
38263;DHT22;24054;50.128;19.730;2022-07-10T08:04:56;24.10;63.30
38263;DHT22;24054;50.128;19.730;2022-07-10T08:07:23;24.10;63.40
38263;DHT22;24054;50.128;19.730;2022-07-10T08:09:50;24.10;63.60
38263;DHT22;24054;50.128;19.730;2022-07-10T08:12:17;24.20;64.60
38263;DHT22;24054;50.128;19.730;2022-07-10T08:14:44;24.20;65.90
38263;DHT22;24054;50.128;19.730;2022-07-10T08:17:11;24.20;65.20
38263;DHT22;24054;50.128;19.730;2022-07-10T08:19:40;24.30;65.20
38263;DHT22;24054;50.128;19.730;2022-07-10T08:22:07;24.30;64.70
38263;DHT22;24054;50.128;19.730;2022-07-10T08:24:34;24.20;63.20
38263;DHT22;24054;50.128;19.730;2022-07-10T08:27:01;24.10;61.50
38263;DHT22;24054;50.128;19.730;2022-07-10T08:29:28;24.10;60.00
38263;DHT22;24054;50.128;19.730;2022-07-10T08:31:55;24.10;58.60
38263;DHT22;24054;50.128;19.730;2022-07-10T08:34:23;24.10;59.10
38263;DHT22;24054;50.128;19.730;2022-07-10T08:36:51;24.10;57.80
38263;DHT22;24054;50.128;19.730;2022-07-10T08:39:18;24.00;57.80
38263;DHT22;24054;50.128;19.730;2022-07-10T08:41:47;24.00;57.10
38263;DHT22;24054;50.128;19.730;2022-07-10T08:44:15;24.00;56.70
38263;DHT22;24054;50.128;19.730;2022-07-10T08:46:43;24.00;55.90
38263;DHT22;24054;50.128;19.730;2022-07-10T08:49:11;23.90;56.60
38263;DHT22;24054;50.128;19.730;2022-07-10T08:51:51;23.90;56.00
38263;DHT22;24054;50.128;19.730;2022-07-10T08:54:22;23.90;55.40
38263;DHT22;24054;50.128;19.730;2022-07-10T08:56:51;23.90;53.50
38263;DHT22;24054;50.128;19.730;2022-07-10T08:59:21;23.90;53.20
38263;DHT22;24054;50.128;19.730;2022-07-10T09:01:49;23.90;54.00
38263;DHT22;24054;50.128;19.730;2022-07-10T09:04:17;23.90;55.70
38263;DHT22;24054;50.128;19.730;2022-07-10T09:06:46;23.90;55.30
38263;DHT22;24054;50.128;19.730;2022-07-10T09:09:14;23.90;55.10
38263;DHT22;24054;50.128;19.730;2022-07-10T09:11:43;23.90;55.60
38263;DHT22;24054;50.128;19.730;2022-07-10T09:14:13;24.00;55.50
38263;DHT22;24054;50.128;19.730;2022-07-10T09:16:42;23.90;55.00
38263;DHT22;24054;50.128;19.730;2022-07-10T09:19:18;24.00;55.60
38263;DHT22;24054;50.128;19.730;2022-07-10T09:21:47;24.10;55.80
38263;DHT22;24054;50.128;19.730;2022-07-10T09:24:15;24.10;55.60
38263;DHT22;24054;50.128;19.730;2022-07-10T09:26:58;24.10;55.60
38263;DHT22;24054;50.128;19.730;2022-07-10T09:29:26;24.10;55.90
38263;DHT22;24054;50.128;19.730;2022-07-10T09:31:54;24.00;56.00
38263;DHT22;24054;50.128;19.730;2022-07-10T09:34:36;24.00;55.70
38263;DHT22;24054;50.128;19.730;2022-07-10T09:37:23;24.10;56.00
38263;DHT22;24054;50.128;19.730;2022-07-10T09:39:56;24.10;55.90
38263;DHT22;24054;50.128;19.730;2022-07-10T09:42:30;24.10;55.90
38263;DHT22;24054;50.128;19.730;2022-07-10T09:45:21;24.10;55.70
38263;DHT22;24054;50.128;19.730;2022-07-10T09:47:57;24.10;55.80
38263;DHT22;24054;50.128;19.730;2022-07-10T09:50:27;24.10;55.50
38263;DHT22;24054;50.128;19.730;2022-07-10T09:52:56;24.10;55.70
38263;DHT22;24054;50.128;19.730;2022-07-10T09:55:25;24.10;55.70
38263;DHT22;24054;50.128;19.730;2022-07-10T09:57:56;24.10;55.60
38263;DHT22;24054;50.128;19.730;2022-07-10T10:00:27;24.10;55.60
38263;DHT22;24054;50.128;19.730;2022-07-10T10:02:56;24.10;55.20
38263;DHT22;24054;50.128;19.730;2022-07-10T10:05:37;24.00;55.70
38263;DHT22;24054;50.128;19.730;2022-07-10T10:08:11;24.10;55.20
38263;DHT22;24054;50.128;19.730;2022-07-10T10:10:44;24.00;55.40
38263;DHT22;24054;50.128;19.730;2022-07-10T10:13:17;24.00;56.10
38263;DHT22;24054;50.128;19.730;2022-07-10T10:15:46;24.00;56.20
38263;DHT22;24054;50.128;19.730;2022-07-10T10:18:16;24.00;56.20
38263;DHT22;24054;50.128;19.730;2022-07-10T10:20:45;24.00;56.00
38263;DHT22;24054;50.128;19.730;2022-07-10T10:23:14;24.00;55.30
38263;DHT22;24054;50.128;19.730;2022-07-10T10:25:43;24.00;55.40
38263;DHT22;24054;50.128;19.730;2022-07-10T10:28:15;24.00;55.30
38263;DHT22;24054;50.128;19.730;2022-07-10T10:30:45;24.00;54.40
38263;DHT22;24054;50.128;19.730;2022-07-10T10:33:41;24.00;54.60
38263;DHT22;24054;50.128;19.730;2022-07-10T10:36:11;24.00;54.00
38263;DHT22;24054;50.128;19.730;2022-07-10T10:41:25;24.00;54.20
38263;DHT22;24054;50.128;19.730;2022-07-10T10:47:05;24.00;54.10
38263;DHT22;24054;50.128;19.730;2022-07-10T10:49:53;24.10;53.10
38263;DHT22;24054;50.128;19.730;2022-07-10T10:52:22;24.10;52.60
38263;DHT22;24054;50.128;19.730;2022-07-10T10:55:04;24.10;52.60
38263;DHT22;24054;50.128;19.730;2022-07-10T10:57:40;24.10;52.70
38263;DHT22;24054;50.128;19.730;2022-07-10T11:00:30;24.10;52.80
38263;DHT22;24054;50.128;19.730;2022-07-10T11:03:16;24.10;51.60
38263;DHT22;24054;50.128;19.730;2022-07-10T11:05:45;24.10;52.00
38263;DHT22;24054;50.128;19.730;2022-07-10T11:08:13;24.20;52.10
38263;DHT22;24054;50.128;19.730;2022-07-10T11:10:42;24.20;52.10
38263;DHT22;24054;50.128;19.730;2022-07-10T11:13:10;24.20;52.30
38263;DHT22;24054;50.128;19.730;2022-07-10T11:15:39;24.20;52.40
38263;DHT22;24054;50.128;19.730;2022-07-10T11:18:09;24.20;52.40
38263;DHT22;24054;50.128;19.730;2022-07-10T11:20:40;24.20;52.50
38263;DHT22;24054;50.128;19.730;2022-07-10T11:26:08;24.20;52.90
38263;DHT22;24054;50.128;19.730;2022-07-10T11:28:52;24.20;52.30
38263;DHT22;24054;50.128;19.730;2022-07-10T11:31:20;24.20;52.00
38263;DHT22;24054;50.128;19.730;2022-07-10T11:33:48;24.20;51.80
38263;DHT22;24054;50.128;19.730;2022-07-10T11:36:19;24.10;52.60
38263;DHT22;24054;50.128;19.730;2022-07-10T11:38:48;24.10;52.70
38263;DHT22;24054;50.128;19.730;2022-07-10T11:41:16;24.20;52.80
38263;DHT22;24054;50.128;19.730;2022-07-10T11:43:52;24.10;52.60
38263;DHT22;24054;50.128;19.730;2022-07-10T11:46:20;24.10;51.90
38263;DHT22;24054;50.128;19.730;2022-07-10T11:48:48;24.10;52.00
38263;DHT22;24054;50.128;19.730;2022-07-10T11:51:22;24.10;51.50
38263;DHT22;24054;50.128;19.730;2022-07-10T11:53:54;24.10;51.80
38263;DHT22;24054;50.128;19.730;2022-07-10T11:56:22;24.10;51.20
38263;DHT22;24054;50.128;19.730;2022-07-10T11:58:56;24.10;50.60
38263;DHT22;24054;50.128;19.730;2022-07-10T12:01:24;24.00;50.00
38263;DHT22;24054;50.128;19.730;2022-07-10T12:04:00;24.00;50.20
38263;DHT22;24054;50.128;19.730;2022-07-10T12:06:30;24.10;49.90
38263;DHT22;24054;50.128;19.730;2022-07-10T12:09:02;24.10;48.50
38263;DHT22;24054;50.128;19.730;2022-07-10T12:11:29;24.10;49.20
38263;DHT22;24054;50.128;19.730;2022-07-10T12:14:09;24.10;49.10
38263;DHT22;24054;50.128;19.730;2022-07-10T12:16:36;24.10;49.20
38263;DHT22;24054;50.128;19.730;2022-07-10T12:19:05;24.10;48.70
38263;DHT22;24054;50.128;19.730;2022-07-10T12:21:35;24.20;49.20
38263;DHT22;24054;50.128;19.730;2022-07-10T12:24:03;24.20;49.10
38263;DHT22;24054;50.128;19.730;2022-07-10T12:26:34;24.20;49.10
38263;DHT22;24054;50.128;19.730;2022-07-10T12:29:04;24.30;49.50
38263;DHT22;24054;50.128;19.730;2022-07-10T12:31:33;24.30;49.80
38263;DHT22;24054;50.128;19.730;2022-07-10T12:34:02;24.30;49.60
38263;DHT22;24054;50.128;19.730;2022-07-10T12:36:44;24.30;49.80
38263;DHT22;24054;50.128;19.730;2022-07-10T12:39:13;24.20;49.80
38263;DHT22;24054;50.128;19.730;2022-07-10T12:41:57;24.20;50.10
38263;DHT22;24054;50.128;19.730;2022-07-10T12:44:40;24.20;49.80
38263;DHT22;24054;50.128;19.730;2022-07-10T12:47:09;24.20;50.10
38263;DHT22;24054;50.128;19.730;2022-07-10T12:49:51;24.20;50.60
38263;DHT22;24054;50.128;19.730;2022-07-10T12:52:27;24.20;50.20
38263;DHT22;24054;50.128;19.730;2022-07-10T12:55:11;24.20;49.70
38263;DHT22;24054;50.128;19.730;2022-07-10T12:57:50;24.10;49.30
38263;DHT22;24054;50.128;19.730;2022-07-10T13:00:20;24.10;48.50
38263;DHT22;24054;50.128;19.730;2022-07-10T13:02:49;24.10;48.00
38263;DHT22;24054;50.128;19.730;2022-07-10T13:05:29;24.10;48.70
38263;DHT22;24054;50.128;19.730;2022-07-10T13:08:09;24.20;49.00
38263;DHT22;24054;50.128;19.730;2022-07-10T13:10:39;24.20;48.80
38263;DHT22;24054;50.128;19.730;2022-07-10T13:13:06;24.20;48.90
38263;DHT22;24054;50.128;19.730;2022-07-10T13:15:35;24.20;48.90
38263;DHT22;24054;50.128;19.730;2022-07-10T13:18:06;24.20;49.00
38263;DHT22;24054;50.128;19.730;2022-07-10T13:20:33;24.20;49.10
38263;DHT22;24054;50.128;19.730;2022-07-10T13:23:01;24.20;49.30
38263;DHT22;24054;50.128;19.730;2022-07-10T13:25:30;24.20;49.30
38263;DHT22;24054;50.128;19.730;2022-07-10T13:27:57;24.20;49.70
38263;DHT22;24054;50.128;19.730;2022-07-10T13:30:26;24.20;49.60
38263;DHT22;24054;50.128;19.730;2022-07-10T13:32:53;24.20;49.90
38263;DHT22;24054;50.128;19.730;2022-07-10T13:35:20;24.20;49.80
38263;DHT22;24054;50.128;19.730;2022-07-10T13:37:48;24.30;49.90
38263;DHT22;24054;50.128;19.730;2022-07-10T13:40:18;24.30;50.10
38263;DHT22;24054;50.128;19.730;2022-07-10T13:42:48;24.30;50.30
38263;DHT22;24054;50.128;19.730;2022-07-10T13:45:15;24.30;50.10
38263;DHT22;24054;50.128;19.730;2022-07-10T13:47:42;24.50;50.40
38263;DHT22;24054;50.128;19.730;2022-07-10T13:50:09;24.30;50.20
38263;DHT22;24054;50.128;19.730;2022-07-10T13:52:36;24.30;50.50
38263;DHT22;24054;50.128;19.730;2022-07-10T13:55:04;24.30;50.40
38263;DHT22;24054;50.128;19.730;2022-07-10T13:57:32;24.30;50.60
38263;DHT22;24054;50.128;19.730;2022-07-10T14:00:01;24.30;50.60
38263;DHT22;24054;50.128;19.730;2022-07-10T14:02:28;24.30;50.80
38263;DHT22;24054;50.128;19.730;2022-07-10T14:04:55;24.30;50.80
38263;DHT22;24054;50.128;19.730;2022-07-10T14:07:22;24.30;51.00
38263;DHT22;24054;50.128;19.730;2022-07-10T14:09:49;24.40;51.00
38263;DHT22;24054;50.128;19.730;2022-07-10T14:12:17;24.40;51.10
38263;DHT22;24054;50.128;19.730;2022-07-10T14:14:44;24.40;51.20
38263;DHT22;24054;50.128;19.730;2022-07-10T14:17:12;24.40;51.20
38263;DHT22;24054;50.128;19.730;2022-07-10T14:19:40;24.40;51.20
38263;DHT22;24054;50.128;19.730;2022-07-10T14:22:07;24.40;51.30
38263;DHT22;24054;50.128;19.730;2022-07-10T14:24:35;24.40;51.50
38263;DHT22;24054;50.128;19.730;2022-07-10T14:27:02;24.40;51.40
38263;DHT22;24054;50.128;19.730;2022-07-10T14:29:30;24.40;51.60
38263;DHT22;24054;50.128;19.730;2022-07-10T14:31:57;24.40;51.60
38263;DHT22;24054;50.128;19.730;2022-07-10T14:34:26;24.40;51.70
38263;DHT22;24054;50.128;19.730;2022-07-10T14:36:54;24.40;51.80
38263;DHT22;24054;50.128;19.730;2022-07-10T14:39:22;24.40;51.90
38263;DHT22;24054;50.128;19.730;2022-07-10T14:41:49;24.40;52.00
38263;DHT22;24054;50.128;19.730;2022-07-10T14:44:16;24.40;52.00
38263;DHT22;24054;50.128;19.730;2022-07-10T14:46:43;24.40;52.10
38263;DHT22;24054;50.128;19.730;2022-07-10T14:49:10;24.30;52.00
38263;DHT22;24054;50.128;19.730;2022-07-10T14:51:41;24.40;52.20
38263;DHT22;24054;50.128;19.730;2022-07-10T14:54:08;24.40;52.30
38263;DHT22;24054;50.128;19.730;2022-07-10T14:56:36;24.40;52.30
38263;DHT22;24054;50.128;19.730;2022-07-10T14:59:03;24.40;52.40
38263;DHT22;24054;50.128;19.730;2022-07-10T15:01:30;24.40;52.60
38263;DHT22;24054;50.128;19.730;2022-07-10T15:04:00;24.30;52.50
38263;DHT22;24054;50.128;19.730;2022-07-10T15:06:28;24.40;52.60
38263;DHT22;24054;50.128;19.730;2022-07-10T15:08:57;24.30;52.50
38263;DHT22;24054;50.128;19.730;2022-07-10T15:11:24;24.40;52.60
38263;DHT22;24054;50.128;19.730;2022-07-10T15:13:52;24.30;52.80
38263;DHT22;24054;50.128;19.730;2022-07-10T15:16:24;24.30;52.70
38263;DHT22;24054;50.128;19.730;2022-07-10T15:18:52;24.30;52.80
38263;DHT22;24054;50.128;19.730;2022-07-10T15:21:21;24.30;52.90
38263;DHT22;24054;50.128;19.730;2022-07-10T15:23:48;24.30;52.90
38263;DHT22;24054;50.128;19.730;2022-07-10T15:26:16;24.30;52.90
38263;DHT22;24054;50.128;19.730;2022-07-10T15:28:46;24.30;53.00
38263;DHT22;24054;50.128;19.730;2022-07-10T15:31:14;24.30;53.00
38263;DHT22;24054;50.128;19.730;2022-07-10T15:33:41;24.30;53.00
38263;DHT22;24054;50.128;19.730;2022-07-10T15:36:10;24.30;53.10